Time;durP1;ratioP1;P1;durP2;ratioP2;P2;SDS_P1;SDS_P2;PMS_P1;PMS_P2;Temp;Humidity;BMP_temperature;BMP_pressure;BME280_temperature;BME280_humidity;BME280_pressure;Samples;Min_cycle;Max_cycle;Signal;HPM_P1;HPM_P2
2022/03/05 00:01:18;;;;;;;27.80;16.40;;;;;;;2.14;58.11;101382.75;5022610;27;20085;-71
2022/03/05 00:03:43;;;;;;;26.58;15.43;;;;;;;2.14;58.31;101386.22;5024746;27;20021;-71
2022/03/05 00:06:09;;;;;;;25.80;15.57;;;;;;;2.15;58.71;101382.69;5025634;27;20128;-72
2022/03/05 00:08:34;;;;;;;27.10;16.60;;;;;;;2.17;58.62;101385.22;5033276;27;20019;-72
2022/03/05 00:11:00;;;;;;;27.58;16.23;;;;;;;2.09;58.69;101384.72;5019699;27;20073;-76
2022/03/05 00:13:25;;;;;;;32.00;17.58;;;;;;;2.08;59.30;101391.69;5022148;27;20029;-69
2022/03/05 00:15:51;;;;;;;28.15;17.27;;;;;;;2.00;59.22;101386.81;5027946;27;20452;-70
2022/03/05 00:18:17;;;;;;;30.35;17.00;;;;;;;2.01;59.49;101391.13;5028463;27;20420;-70
2022/03/05 00:20:44;;;;;;;30.38;17.63;;;;;;;1.98;59.37;101391.25;5011679;27;20760;-70
2022/03/05 00:23:10;;;;;;;30.77;17.27;;;;;;;1.99;59.61;101392.94;5016522;27;20009;-70
2022/03/05 00:25:37;;;;;;;28.02;17.05;;;;;;;1.94;59.81;101394.91;5030812;27;20351;-70
2022/03/05 00:28:02;;;;;;;32.30;17.90;;;;;;;1.93;59.82;101387.97;5021996;27;20033;-72
2022/03/05 00:30:28;;;;;;;32.20;18.15;;;;;;;1.78;60.49;101383.44;5012604;27;20078;-71
2022/03/05 00:32:53;;;;;;;31.77;18.42;;;;;;;1.78;60.49;101388.66;5033767;27;20017;-70
2022/03/05 00:35:19;;;;;;;33.70;19.10;;;;;;;1.82;60.76;101382.38;5032150;27;20031;-70
2022/03/05 00:37:44;;;;;;;32.38;18.20;;;;;;;1.83;60.66;101389.28;5012767;27;20598;-72
2022/03/05 00:40:10;;;;;;;32.53;19.15;;;;;;;1.80;60.88;101392.03;5029296;27;20033;-70
2022/03/05 00:42:35;;;;;;;33.78;19.33;;;;;;;1.77;60.68;101400.00;5030705;27;20024;-70
2022/03/05 00:45:01;;;;;;;31.88;18.35;;;;;;;1.71;61.06;101388.06;5013030;27;20013;-69
2022/03/05 00:47:26;;;;;;;32.33;18.42;;;;;;;1.74;61.52;101392.28;5028642;27;20950;-70
2022/03/05 00:49:53;;;;;;;31.40;17.95;;;;;;;1.70;61.32;101392.41;5029713;27;20677;-71
2022/03/05 00:52:18;;;;;;;34.30;19.58;;;;;;;1.74;60.99;101397.50;5026593;27;20275;-70
2022/03/05 00:54:43;;;;;;;38.20;19.20;;;;;;;1.71;61.00;101394.09;5014199;27;20467;-71
2022/03/05 00:57:09;;;;;;;33.92;19.70;;;;;;;1.71;61.49;101396.72;5032944;27;20009;-70
2022/03/05 00:59:34;;;;;;;33.08;19.02;;;;;;;1.75;61.23;101396.59;5029793;27;20936;-70
2022/03/05 01:01:59;;;;;;;34.85;18.65;;;;;;;1.69;61.61;101401.16;5029443;27;20202;-72
2022/03/05 01:04:25;;;;;;;34.45;19.27;;;;;;;1.56;61.60;101386.91;5027575;27;20029;-70
2022/03/05 01:06:50;;;;;;;37.00;19.35;;;;;;;1.57;61.72;101387.78;5000589;27;20017;-70
2022/03/05 01:09:16;;;;;;;35.70;19.83;;;;;;;1.57;62.15;101386.00;5026853;27;20823;-71
2022/03/05 01:11:41;;;;;;;38.47;19.90;;;;;;;1.47;62.16;101374.25;5014356;27;20037;-71
2022/03/05 01:14:07;;;;;;;36.85;19.10;;;;;;;1.46;62.20;101378.59;5028007;27;20120;-71
2022/03/05 01:16:34;;;;;;;34.85;19.15;;;;;;;1.51;62.33;101378.44;5009556;27;20530;-71
2022/03/05 01:18:59;;;;;;;37.40;20.13;;;;;;;1.50;62.21;101384.56;5010043;28;20145;-71
2022/03/05 01:21:25;;;;;;;36.63;20.02;;;;;;;1.49;62.42;101372.44;5021003;27;20028;-70
2022/03/05 01:23:51;;;;;;;34.63;19.00;;;;;;;1.43;62.44;101364.88;5030133;27;20865;-71
2022/03/05 01:26:16;;;;;;;34.30;19.77;;;;;;;1.30;62.95;101372.34;5028565;27;20681;-71
2022/03/05 01:28:42;;;;;;;38.42;20.40;;;;;;;1.35;62.91;101370.38;5033325;27;20986;-70
2022/03/05 01:31:07;;;;;;;37.20;19.38;;;;;;;1.32;62.85;101366.13;4995137;27;20037;-70
2022/03/05 01:33:32;;;;;;;38.42;19.77;;;;;;;1.27;62.86;101368.09;5032798;27;20021;-72
2022/03/05 01:35:58;;;;;;;35.65;19.13;;;;;;;1.17;63.31;101367.59;5029959;27;20862;-71
2022/03/05 01:38:23;;;;;;;39.42;18.95;;;;;;;1.14;63.32;101367.72;5012612;27;20260;-72
2022/03/05 01:40:48;;;;;;;37.22;19.60;;;;;;;1.15;63.75;101365.97;5021569;27;20231;-70
2022/03/05 01:43:14;;;;;;;37.45;19.90;;;;;;;1.14;63.69;101372.94;5027547;27;20028;-72
2022/03/05 01:45:39;;;;;;;36.47;19.20;;;;;;;1.21;63.26;101357.88;5011625;27;20028;-72
2022/03/05 01:48:05;;;;;;;36.13;19.95;;;;;;;1.05;63.67;101359.44;5012110;27;20124;-72
2022/03/05 01:50:30;;;;;;;36.28;19.27;;;;;;;1.10;63.56;101339.22;5029571;27;20114;-69
2022/03/05 01:52:56;;;;;;;39.78;20.90;;;;;;;1.12;63.74;101353.06;5029559;27;20702;-70
2022/03/05 01:55:22;;;;;;;39.10;20.27;;;;;;;1.20;63.47;101356.22;4994728;27;20411;-70
2022/03/05 01:57:47;;;;;;;38.95;20.55;;;;;;;1.16;63.67;101365.06;5021655;27;20005;-70
2022/03/05 02:00:13;;;;;;;40.60;20.85;;;;;;;1.16;63.69;101357.25;4996214;27;20064;-72
2022/03/05 02:02:39;;;;;;;37.42;19.63;;;;;;;1.14;63.54;101353.84;5028931;27;20005;-71
2022/03/05 02:05:05;;;;;;;37.55;19.50;;;;;;;1.16;63.74;101362.47;5011749;27;21108;-71
2022/03/05 02:07:31;;;;;;;39.13;20.60;;;;;;;1.11;63.71;101351.34;5011358;27;20834;-71
2022/03/05 02:09:56;;;;;;;39.38;19.67;;;;;;;1.16;63.36;101355.47;5030884;27;20141;-71
2022/03/05 02:12:31;;;;;;;39.05;20.05;;;;;;;1.00;64.04;101346.56;5032285;27;20088;-70
2022/03/05 02:14:58;;;;;;;35.60;18.60;;;;;;;1.03;63.90;101346.47;5009316;27;21018;-72
2022/03/05 02:17:24;;;;;;;37.38;19.20;;;;;;;0.98;64.26;101351.81;5011137;27;20121;-70
2022/03/05 02:19:49;;;;;;;36.55;19.27;;;;;;;1.00;64.39;101351.75;5029137;27;20395;-70
2022/03/05 02:22:14;;;;;;;37.70;19.52;;;;;;;0.94;64.35;101347.63;5026582;27;20628;-70
2022/03/05 02:24:40;;;;;;;36.20;18.33;;;;;;;1.04;64.20;101358.56;5009254;27;20978;-70
2022/03/05 02:27:06;;;;;;;36.80;20.33;;;;;;;1.09;63.83;101355.78;5020171;27;20365;-70
2022/03/05 02:29:31;;;;;;;39.92;19.60;;;;;;;1.02;64.19;101350.81;5011851;27;20029;-70
2022/03/05 02:31:57;;;;;;;34.47;19.52;;;;;;;1.05;63.95;101352.44;5011143;27;20021;-70
2022/03/05 02:34:22;;;;;;;35.47;19.20;;;;;;;0.99;64.42;101353.53;5029470;27;21251;-72
2022/03/05 02:36:48;;;;;;;35.05;18.98;;;;;;;0.91;64.49;101355.59;5017799;27;20044;-72
2022/03/05 02:39:13;;;;;;;35.40;19.45;;;;;;;0.94;64.29;101345.03;5030861;27;20234;-72
2022/03/05 02:41:38;;;;;;;37.28;19.58;;;;;;;0.94;64.30;101350.25;5026661;27;20017;-72
2022/03/05 02:44:04;;;;;;;34.50;18.52;;;;;;;0.97;64.50;101344.94;5030694;27;20338;-70
2022/03/05 02:46:29;;;;;;;37.30;19.25;;;;;;;0.88;64.63;101345.28;5025362;27;20077;-70
2022/03/05 02:48:55;;;;;;;34.33;19.08;;;;;;;0.87;64.76;101343.56;5028879;27;20521;-70
2022/03/05 02:51:21;;;;;;;36.03;19.23;;;;;;;0.81;64.60;101338.63;5025809;27;20078;-70
2022/03/05 02:53:47;;;;;;;41.28;19.85;;;;;;;0.76;64.84;101348.34;5010211;27;20024;-70
2022/03/05 02:56:12;;;;;;;39.78;19.70;;;;;;;0.77;64.96;101343.09;5011094;27;20762;-69
2022/03/05 02:58:37;;;;;;;37.85;19.13;;;;;;;0.66;65.07;101346.13;5030962;27;20945;-70
2022/03/05 03:01:03;;;;;;;35.20;17.92;;;;;;;0.70;65.22;101336.41;5025792;27;20224;-72
2022/03/05 03:03:28;;;;;;;35.95;18.90;;;;;;;0.76;65.03;101337.94;5010350;27;20062;-70
2022/03/05 03:05:54;;;;;;;37.53;18.75;;;;;;;0.78;64.92;101338.75;5002438;28;20029;-70
2022/03/05 03:08:19;;;;;;;36.33;19.00;;;;;;;0.74;65.28;101339.75;5000518;27;20020;-71
2022/03/05 03:10:45;;;;;;;35.47;18.38;;;;;;;0.76;64.79;101341.41;5012941;27;20222;-69
2022/03/05 03:13:10;;;;;;;38.10;19.42;;;;;;;0.72;65.57;101344.16;5033423;27;20009;-73
2022/03/05 03:15:35;;;;;;;34.17;18.65;;;;;;;0.68;65.41;101336.47;5009881;27;20025;-72
2022/03/05 03:18:01;;;;;;;37.88;18.98;;;;;;;0.82;64.93;101340.31;5030152;27;20947;-70
2022/03/05 03:20:26;;;;;;;34.97;18.75;;;;;;;0.74;65.21;101337.16;5011823;27;20033;-70
2022/03/05 03:22:52;;;;;;;34.00;18.15;;;;;;;0.74;65.33;101330.19;4994097;28;20021;-70
2022/03/05 03:25:17;;;;;;;33.63;18.15;;;;;;;0.59;65.32;101333.38;5008005;27;20091;-72
2022/03/05 03:27:43;;;;;;;34.53;18.80;;;;;;;0.48;65.87;101336.38;5011431;28;20066;-72
2022/03/05 03:30:09;;;;;;;33.65;18.15;;;;;;;0.45;66.03;101326.06;5008835;28;20887;-70
2022/03/05 03:32:35;;;;;;;33.75;17.35;;;;;;;0.45;66.26;101331.28;4993495;28;20025;-70
2022/03/05 03:35:00;;;;;;;36.80;18.20;;;;;;;0.55;66.02;101331.78;5011044;28;20025;-69
2022/03/05 03:37:29;;;;;;;39.17;19.83;;;;;;;0.55;65.85;101331.78;5028342;27;20040;-70
2022/03/05 03:39:58;;;;;;;35.30;18.15;;;;;;;0.46;66.17;101331.22;5013792;27;20036;-70
2022/03/05 03:42:24;;;;;;;36.50;19.00;;;;;;;0.55;65.82;101337.88;5014026;27;20135;-70
2022/03/05 03:44:50;;;;;;;36.72;19.10;;;;;;;0.52;66.00;101335.34;5011824;27;20032;-70
2022/03/05 03:47:15;;;;;;;35.20;18.33;;;;;;;0.54;65.78;101335.28;4996244;27;20025;-70
2022/03/05 03:49:41;;;;;;;33.42;17.58;;;;;;;0.59;65.82;101347.25;5030608;27;20039;-70
2022/03/05 03:52:06;;;;;;;34.88;17.70;;;;;;;0.63;65.57;101335.78;5009788;27;20135;-73
2022/03/05 03:54:32;;;;;;;33.67;18.05;;;;;;;0.64;65.61;101337.50;4996870;27;20027;-70
2022/03/05 03:56:57;;;;;;;37.28;19.13;;;;;;;0.64;65.65;101345.31;5018011;27;20092;-70
2022/03/05 03:59:22;;;;;;;35.95;18.02;;;;;;;0.61;65.48;101336.78;4995865;27;20105;-71
2022/03/05 04:01:48;;;;;;;35.55;17.95;;;;;;;0.70;65.50;101344.22;5012966;27;20020;-70
2022/03/05 04:04:13;;;;;;;36.55;18.35;;;;;;;0.61;65.74;101342.00;5034060;27;20740;-69
2022/03/05 04:09:30;;;;;;;35.47;18.05;;;;;;;0.56;65.39;101344.75;4981727;28;20219;-72
2022/03/05 04:11:55;;;;;;;32.55;17.38;;;;;;;0.60;65.42;101350.69;4957535;28;20188;-71
2022/03/05 04:14:21;;;;;;;31.45;17.38;;;;;;;0.58;65.54;101349.91;4991358;28;20021;-70
2022/03/05 04:16:46;;;;;;;36.17;18.42;;;;;;;0.65;65.28;101340.97;4977905;28;20025;-70
2022/03/05 04:19:12;;;;;;;35.90;17.48;;;;;;;0.74;65.34;101347.59;5013452;27;20048;-70
2022/03/05 04:21:37;;;;;;;35.97;19.08;;;;;;;0.67;65.42;101349.56;5033460;27;20382;-71
2022/03/05 04:24:02;;;;;;;33.78;17.40;;;;;;;0.68;65.11;101352.09;5033969;27;20449;-72
2022/03/05 04:26:28;;;;;;;36.13;18.42;;;;;;;0.73;65.12;101345.88;5014173;27;20298;-72
2022/03/05 04:28:53;;;;;;;34.55;18.35;;;;;;;0.56;65.33;101347.34;5010759;27;20036;-70
2022/03/05 04:31:18;;;;;;;34.00;17.77;;;;;;;0.57;65.24;101356.88;5025370;27;20017;-71
2022/03/05 04:33:44;;;;;;;31.50;16.88;;;;;;;0.57;65.56;101354.25;5030633;27;20021;-71
2022/03/05 04:36:09;;;;;;;34.65;18.02;;;;;;;0.60;65.39;101358.50;5032169;27;20931;-70
2022/03/05 04:38:34;;;;;;;32.78;17.20;;;;;;;0.54;65.48;101340.50;5031123;27;20271;-71
2022/03/05 04:41:00;;;;;;;34.58;17.92;;;;;;;0.55;65.73;101361.31;5028704;27;20029;-70
2022/03/05 04:43:25;;;;;;;34.63;17.38;;;;;;;0.61;65.52;101363.66;5014833;27;20024;-71
2022/03/05 04:45:51;;;;;;;30.67;17.02;;;;;;;0.63;65.45;101361.84;5029784;27;20013;-72
2022/03/05 04:48:16;;;;;;;32.47;17.70;;;;;;;0.61;65.42;101368.03;5011557;27;20036;-72
2022/03/05 04:50:41;;;;;;;32.10;17.30;;;;;;;0.59;65.39;101365.50;4994075;27;20822;-71
2022/03/05 04:53:07;;;;;;;32.08;17.38;;;;;;;0.57;65.41;101369.88;5031230;27;20263;-71
2022/03/05 04:55:32;;;;;;;36.60;18.45;;;;;;;0.45;65.70;101365.13;5028790;27;20013;-71
2022/03/05 04:57:57;;;;;;;34.50;17.80;;;;;;;0.33;66.01;101369.88;4995867;27;20017;-71
2022/03/05 05:00:23;;;;;;;31.33;16.40;;;;;;;0.41;66.05;101369.63;5009745;27;20035;-71
2022/03/05 05:02:48;;;;;;;32.90;17.17;;;;;;;0.38;66.18;101367.13;4998400;27;20074;-70
2022/03/05 05:05:13;;;;;;;30.83;16.70;;;;;;;0.33;66.22;101369.88;5011004;27;20025;-70
2022/03/05 05:07:39;;;;;;;32.50;16.70;;;;;;;0.34;66.38;101378.56;5031263;27;20187;-71
2022/03/05 05:10:05;;;;;;;30.80;16.80;;;;;;;0.41;65.89;101384.38;5028639;27;20376;-70
2022/03/05 05:12:30;;;;;;;33.10;17.13;;;;;;;0.41;65.89;101373.94;5030550;27;20794;-71
2022/03/05 05:14:56;;;;;;;30.75;16.88;;;;;;;0.45;65.67;101378.16;5013086;27;20040;-69
2022/03/05 05:17:21;;;;;;;31.83;17.08;;;;;;;0.31;66.02;101376.03;5015935;27;20028;-69
2022/03/05 05:19:47;;;;;;;33.42;18.00;;;;;;;0.38;66.04;101381.88;5031329;27;20428;-70
2022/03/05 05:22:12;;;;;;;32.10;16.58;;;;;;;0.32;66.15;101378.63;5026803;27;20116;-70
2022/03/05 05:24:38;;;;;;;36.67;17.20;;;;;;;0.31;66.13;101368.22;4993179;27;20008;-70
2022/03/05 05:27:03;;;;;;;33.17;17.35;;;;;;;0.33;66.10;101369.88;4995274;27;20056;-71
2022/03/05 05:29:29;;;;;;;33.78;17.15;;;;;;;0.28;66.49;101377.03;4995173;27;20024;-70
2022/03/05 05:31:55;;;;;;;32.63;17.08;;;;;;;0.28;66.23;101371.81;5033034;27;20482;-70
2022/03/05 05:34:20;;;;;;;33.45;17.50;;;;;;;0.29;66.00;101373.50;5011293;27;20211;-70
2022/03/05 05:36:46;;;;;;;29.70;16.23;;;;;;;0.46;65.66;101374.66;5012423;27;20116;-70
2022/03/05 05:39:11;;;;;;;29.98;16.38;;;;;;;0.51;65.68;101377.94;5014724;27;20040;-71
2022/03/05 05:41:37;;;;;;;35.55;17.15;;;;;;;0.42;65.57;101373.06;5011723;27;20052;-70
2022/03/05 05:44:03;;;;;;;30.65;16.77;;;;;;;0.42;65.63;101383.47;5013365;27;20217;-70
2022/03/05 05:46:29;;;;;;;29.10;15.80;;;;;;;0.33;65.89;101382.91;5011564;27;20064;-70
2022/03/05 05:48:55;;;;;;;32.35;17.13;;;;;;;0.37;65.91;101385.38;5012074;27;20032;-71
2022/03/05 05:51:20;;;;;;;31.80;17.45;;;;;;;0.33;66.17;101385.50;4994040;27;20021;-70
2022/03/05 05:53:45;;;;;;;32.75;17.52;;;;;;;0.37;66.11;101386.25;5013631;27;20908;-72
2022/03/05 05:56:11;;;;;;;30.00;16.25;;;;;;;0.38;65.80;101392.28;5012262;27;20503;-70
2022/03/05 05:58:36;;;;;;;27.88;16.20;;;;;;;0.41;65.94;101384.38;5033843;27;20023;-73
2022/03/05 06:01:02;;;;;;;28.80;15.55;;;;;;;0.44;65.60;101387.72;4999324;27;20029;-68
2022/03/05 06:03:27;;;;;;;30.95;16.65;;;;;;;0.44;65.69;101397.31;4994619;27;20139;-72
2022/03/05 06:05:52;;;;;;;30.00;17.02;;;;;;;0.40;65.67;101390.50;5027107;27;20024;-69
2022/03/05 06:08:18;;;;;;;27.73;16.67;;;;;;;0.41;65.72;101392.19;5032180;27;20036;-69
2022/03/05 06:10:43;;;;;;;30.92;16.92;;;;;;;0.39;65.78;101386.19;5029312;27;20827;-69
2022/03/05 06:13:09;;;;;;;29.88;16.85;;;;;;;0.41;65.83;101382.63;5013531;27;20550;-70
2022/03/05 06:15:34;;;;;;;31.42;16.50;;;;;;;0.39;66.15;101389.63;4994477;27;20199;-70
2022/03/05 06:17:59;;;;;;;29.52;16.85;;;;;;;0.37;66.07;101390.59;5029977;27;20025;-69
2022/03/05 06:20:25;;;;;;;28.10;16.27;;;;;;;0.33;66.23;101395.91;4993833;28;20025;-70
2022/03/05 06:22:50;;;;;;;30.75;16.30;;;;;;;0.38;66.11;101392.28;4993919;28;21079;-70
2022/03/05 06:25:19;;;;;;;32.40;16.70;;;;;;;0.34;65.96;101382.00;5010481;28;20582;-70
2022/03/05 06:27:44;;;;;;;29.45;16.10;;;;;;;0.37;66.24;101390.59;4985107;27;20032;-70
2022/03/05 06:30:11;;;;;;;30.58;16.83;;;;;;;0.34;66.48;101392.41;5013975;27;20055;-70
2022/03/05 06:32:36;;;;;;;32.13;16.98;;;;;;;0.42;66.22;101394.72;4995673;27;20805;-72
2022/03/05 06:35:02;;;;;;;26.38;15.68;;;;;;;0.44;65.99;101389.50;5011191;27;20049;-71
2022/03/05 06:37:27;;;;;;;30.63;16.77;;;;;;;0.47;65.88;101389.38;5012045;27;20124;-70
2022/03/05 06:39:52;;;;;;;29.15;16.67;;;;;;;0.43;66.12;101393.00;5013749;27;20972;-70
2022/03/05 06:42:18;;;;;;;30.70;16.40;;;;;;;0.45;66.11;101393.78;5031314;27;20463;-68
2022/03/05 06:44:43;;;;;;;29.80;17.02;;;;;;;0.47;65.77;101399.78;5030822;27;20098;-71
2022/03/05 06:47:08;;;;;;;29.10;16.02;;;;;;;0.59;65.79;101390.66;5009719;27;20001;-70
2022/03/05 06:49:34;;;;;;;27.92;15.90;;;;;;;0.60;65.67;101390.59;4996119;27;20020;-71
2022/03/05 06:51:59;;;;;;;28.13;16.17;;;;;;;0.60;65.39;101390.59;5004856;27;20029;-70
2022/03/05 06:54:25;;;;;;;33.55;17.05;;;;;;;0.71;65.34;101398.03;5014632;27;20080;-70
2022/03/05 06:56:51;;;;;;;29.00;16.70;;;;;;;0.78;65.44;101402.09;5012138;27;20421;-70
2022/03/05 06:59:16;;;;;;;26.67;16.80;;;;;;;0.89;64.92;101393.91;5028247;27;20712;-70
2022/03/05 07:01:42;;;;;;;26.95;16.33;;;;;;;0.82;64.68;101397.63;5020848;27;20020;-70
2022/03/05 07:04:07;;;;;;;29.17;16.15;;;;;;;0.96;64.47;101404.91;5032848;27;20322;-71
2022/03/05 07:06:33;;;;;;;29.33;16.80;;;;;;;1.02;64.22;101407.28;5003461;27;20025;-70
2022/03/05 07:08:58;;;;;;;26.60;16.33;;;;;;;1.10;64.19;101417.41;5012317;27;21012;-69
2022/03/05 07:11:23;;;;;;;27.77;16.15;;;;;;;1.08;64.48;101414.88;5032769;27;20039;-70
2022/03/05 07:13:49;;;;;;;28.80;15.95;;;;;;;1.18;63.79;101418.84;5011302;27;20528;-72
2022/03/05 07:16:14;;;;;;;30.15;16.27;;;;;;;1.24;63.34;101409.94;5010191;27;20093;-70
2022/03/05 07:18:40;;;;;;;28.20;16.30;;;;;;;1.29;63.45;101418.41;5010871;27;20028;-72
2022/03/05 07:21:05;;;;;;;30.25;15.93;;;;;;;1.41;63.33;101417.09;5029613;27;20339;-70
2022/03/05 07:23:31;;;;;;;28.05;16.55;;;;;;;1.46;63.26;101416.91;5029663;28;20214;-70
2022/03/05 07:25:56;;;;;;;25.08;15.43;;;;;;;1.58;62.66;101419.00;5046126;27;20434;-72
2022/03/05 07:28:21;;;;;;;26.15;15.50;;;;;;;1.58;62.55;101412.94;5030480;28;20041;-71
2022/03/05 07:30:47;;;;;;;27.88;16.70;;;;;;;1.59;62.28;101419.84;4994395;28;20029;-71
2022/03/05 07:33:13;;;;;;;28.33;16.77;;;;;;;1.53;62.55;101426.16;5014492;28;20040;-70
2022/03/05 07:35:38;;;;;;;28.60;16.58;;;;;;;1.71;61.90;101416.75;5013298;28;20021;-71
2022/03/05 07:38:04;;;;;;;27.83;16.05;;;;;;;1.75;62.49;101420.06;5030551;28;20231;-71
2022/03/05 07:40:30;;;;;;;27.88;16.20;;;;;;;1.90;62.11;101432.47;5020213;28;21063;-71
2022/03/05 07:42:55;;;;;;;26.17;15.35;;;;;;;1.90;61.52;101424.66;5004773;28;20017;-71
2022/03/05 07:45:21;;;;;;;26.45;16.42;;;;;;;2.02;61.76;101428.53;5026269;27;20029;-71
2022/03/05 07:47:47;;;;;;;26.92;15.98;;;;;;;2.02;61.08;101424.13;5023473;28;20017;-71
2022/03/05 07:50:12;;;;;;;25.92;16.15;;;;;;;2.04;61.33;101426.69;5024599;27;20491;-72
2022/03/05 07:52:38;;;;;;;26.52;16.45;;;;;;;2.05;60.94;101428.38;5020484;27;20036;-72
2022/03/05 07:55:04;;;;;;;26.30;15.82;;;;;;;2.10;60.52;101426.44;5023425;28;20017;-72
2022/03/05 07:57:31;;;;;;;28.35;16.35;;;;;;;2.14;59.95;101422.75;5036093;27;20116;-70
2022/03/05 07:59:56;;;;;;;27.70;16.25;;;;;;;2.27;59.79;101428.34;5030465;27;20048;-70
2022/03/05 08:02:22;;;;;;;27.58;16.95;;;;;;;2.30;59.94;101428.19;5017117;28;20020;-71
2022/03/05 08:04:49;;;;;;;30.15;16.23;;;;;;;2.39;59.85;101433.00;5008715;28;20029;-71
2022/03/05 08:07:14;;;;;;;26.90;16.90;;;;;;;2.51;59.38;101438.59;5044645;27;20120;-71
2022/03/05 08:09:42;;;;;;;27.40;16.50;;;;;;;2.65;58.29;101443.22;5044365;28;20444;-72
2022/03/05 08:12:07;;;;;;;25.55;16.05;;;;;;;2.70;58.48;101438.66;5025250;28;20064;-73
2022/03/05 08:14:33;;;;;;;27.83;16.63;;;;;;;2.77;58.61;101445.28;5039585;27;20056;-71
2022/03/05 08:16:58;;;;;;;26.27;15.93;;;;;;;2.79;58.31;101448.66;5064629;27;20009;-71
2022/03/05 08:19:24;;;;;;;29.98;16.90;;;;;;;2.74;57.98;101445.44;5063188;27;20291;-72
2022/03/05 08:21:49;;;;;;;25.33;16.65;;;;;;;3.00;57.82;101448.63;5064021;27;20762;-73
2022/03/05 08:24:15;;;;;;;26.13;16.20;;;;;;;3.14;57.71;101453.22;5064664;27;20027;-73
2022/03/05 08:26:40;;;;;;;26.67;16.65;;;;;;;3.09;56.92;101453.44;5029036;27;20020;-73
2022/03/05 08:29:05;;;;;;;28.02;16.88;;;;;;;3.18;57.26;101460.84;5047639;27;20035;-71
2022/03/05 08:31:31;;;;;;;28.38;16.42;;;;;;;3.32;56.80;101464.59;5013941;27;21439;-72
2022/03/05 08:34:01;;;;;;;25.80;16.42;;;;;;;3.37;56.26;101455.59;5030664;27;20404;-72
2022/03/05 08:36:27;;;;;;;26.33;16.35;;;;;;;3.42;56.12;101461.44;5029701;27;20833;-73
2022/03/05 08:38:52;;;;;;;24.50;15.70;;;;;;;4.09;58.43;101445.13;5003251;27;20128;-73
2022/03/05 08:41:18;;;;;;;26.38;16.40;;;;;;;4.41;54.49;101453.13;5029330;27;20053;-73
2022/03/05 08:43:43;;;;;;;23.10;15.60;;;;;;;5.00;54.26;101445.63;5027066;27;20009;-71
2022/03/05 08:46:09;;;;;;;27.42;16.52;;;;;;;4.68;52.52;101456.06;5028998;27;20509;-71
2022/03/05 08:48:34;;;;;;;25.20;16.02;;;;;;;4.48;52.86;101449.25;5032096;27;20120;-70
2022/03/05 08:51:00;;;;;;;28.30;16.67;;;;;;;4.49;52.57;101439.66;5034375;27;20024;-71
2022/03/05 08:53:25;;;;;;;23.92;15.82;;;;;;;4.49;52.36;101447.50;5024515;27;20086;-71
2022/03/05 08:55:51;;;;;;;24.55;16.02;;;;;;;4.57;52.21;101448.78;4998626;27;20354;-72
2022/03/05 08:58:16;;;;;;;23.08;15.45;;;;;;;4.90;51.69;101455.78;5035565;27;20079;-71
2022/03/05 09:00:41;;;;;;;26.10;15.38;;;;;;;5.00;50.55;101445.63;5033335;27;20423;-70
2022/03/05 09:03:07;;;;;;;26.17;15.77;;;;;;;5.14;51.60;101442.25;5030384;27;20023;-70
2022/03/05 09:05:32;;;;;;;24.55;15.68;;;;;;;5.26;50.96;101443.34;4995039;27;20005;-73
2022/03/05 09:07:58;;;;;;;23.88;15.98;;;;;;;5.35;50.00;101436.78;5015862;27;20964;-73
2022/03/05 09:10:23;;;;;;;23.38;15.98;;;;;;;5.90;49.91;101444.13;5003856;27;20032;-72
2022/03/05 09:12:48;;;;;;;24.38;15.60;;;;;;;6.20;48.73;101440.66;5007606;27;20386;-71
2022/03/05 09:15:14;;;;;;;22.60;15.25;;;;;;;6.32;48.63;101450.44;5034298;27;20304;-72
2022/03/05 09:17:39;;;;;;;22.40;14.85;;;;;;;6.28;47.61;101434.94;5034923;27;20565;-72
2022/03/05 09:20:05;;;;;;;24.23;15.63;;;;;;;6.62;46.78;101443.44;5000409;27;20776;-71
2022/03/05 09:22:30;;;;;;;23.08;15.40;;;;;;;6.83;46.83;101442.09;4979493;27;20079;-73
2022/03/05 09:24:56;;;;;;;23.27;16.33;;;;;;;6.72;45.55;101441.06;5018702;27;20017;-71
2022/03/05 09:27:21;;;;;;;24.33;15.85;;;;;;;6.87;45.80;101446.22;5014105;27;20247;-70
2022/03/05 09:29:46;;;;;;;22.90;14.88;;;;;;;7.20;45.03;101439.78;5022059;27;20387;-71
2022/03/05 09:32:12;;;;;;;24.15;16.00;;;;;;;7.38;45.25;101439.56;5010008;27;20971;-73
2022/03/05 09:34:37;;;;;;;26.15;15.57;;;;;;;7.93;43.33;101443.00;4997243;27;20017;-73
2022/03/05 09:37:03;;;;;;;20.25;14.80;;;;;;;8.45;43.17;101433.38;5035928;27;20033;-71
2022/03/05 09:39:28;;;;;;;21.98;15.35;;;;;;;8.65;42.12;101437.25;5011993;27;20202;-70
2022/03/05 09:41:54;;;;;;;20.52;15.30;;;;;;;8.89;41.43;101445.22;5012630;27;20457;-71
2022/03/05 09:44:19;;;;;;;24.25;16.23;;;;;;;9.27;41.04;101443.47;5018100;27;20598;-71
2022/03/05 09:46:45;;;;;;;23.02;15.82;;;;;;;9.16;40.83;101446.84;4982986;27;20124;-72
2022/03/05 09:49:11;;;;;;;24.95;16.60;;;;;;;9.51;40.05;101450.56;5009120;27;20021;-71
2022/03/05 09:51:36;;;;;;;21.92;15.95;;;;;;;9.96;39.62;101429.59;5019327;27;20838;-70
2022/03/05 09:54:03;;;;;;;21.67;15.73;;;;;;;10.08;39.58;101439.25;5026065;27;20047;-70
2022/03/05 09:56:28;;;;;;;22.20;15.65;;;;;;;10.18;39.28;101439.38;4994605;27;20081;-71
2022/03/05 09:58:55;;;;;;;21.85;15.80;;;;;;;10.39;37.64;101441.34;5012676;27;20009;-73
2022/03/05 10:01:20;;;;;;;22.10;15.80;;;;;;;10.00;38.25;101432.81;5018158;27;20803;-71
2022/03/05 10:03:50;;;;;;;22.85;15.68;;;;;;;11.07;36.65;101434.25;5013248;27;20034;-70
2022/03/05 10:06:16;;;;;;;23.00;15.15;;;;;;;11.30;36.45;101440.34;5010553;27;20144;-71
2022/03/05 10:08:42;;;;;;;20.75;15.18;;;;;;;11.07;36.13;101430.75;5011435;27;20445;-71
2022/03/05 10:11:09;;;;;;;20.10;14.75;;;;;;;11.30;35.63;101429.75;4996379;27;21219;-71
2022/03/05 10:13:35;;;;;;;19.17;14.52;;;;;;;11.99;34.99;101433.81;5011570;27;20025;-71
2022/03/05 10:16:03;;;;;;;18.35;13.85;;;;;;;11.79;34.58;101435.47;5008163;27;20219;-72
2022/03/05 10:18:36;;;;;;;19.67;14.48;;;;;;;11.64;34.36;101434.91;5009752;27;20029;-72
2022/03/05 10:21:03;;;;;;;18.83;14.93;;;;;;;11.82;35.25;101431.72;5026316;27;20033;-72
2022/03/05 10:23:32;;;;;;;19.50;14.73;;;;;;;12.57;33.54;101426.34;5029051;27;20420;-73
2022/03/05 10:25:58;;;;;;;18.92;14.93;;;;;;;13.13;32.21;101422.31;5038465;27;20074;-73
2022/03/05 10:28:27;;;;;;;20.48;14.82;;;;;;;13.14;33.89;101429.31;5032442;27;20251;-73
2022/03/05 10:30:58;;;;;;;24.88;14.65;;;;;;;13.61;33.67;101428.69;5033717;27;20785;-72
2022/03/05 10:33:23;;;;;;;18.48;14.65;;;;;;;14.22;31.99;101431.00;5035583;27;20005;-71
2022/03/05 10:35:48;;;;;;;16.27;14.03;;;;;;;13.78;30.96;101425.34;5036869;27;20206;-71
2022/03/05 10:38:14;;;;;;;19.38;13.98;;;;;;;13.65;31.96;101428.28;5000271;27;20317;-71
2022/03/05 10:40:39;;;;;;;17.35;14.15;;;;;;;13.12;31.58;101424.13;5023115;27;20041;-72
2022/03/05 10:43:06;;;;;;;17.67;13.73;;;;;;;13.44;31.36;101425.75;5032366;27;20479;-71
2022/03/05 10:45:55;;;;;;;16.52;13.73;;;;;;;13.53;29.99;101426.75;5021750;27;20084;-70
2022/03/05 10:48:22;;;;;;;19.00;13.98;;;;;;;13.88;29.92;101422.69;5001888;28;20098;-72
2022/03/05 10:50:47;;;;;;;17.90;13.90;;;;;;;13.99;29.42;101419.84;5018218;27;20033;-73
2022/03/05 10:53:13;;;;;;;15.77;13.15;;;;;;;13.98;29.01;101417.34;5020426;27;20033;-73
2022/03/05 10:55:39;;;;;;;16.60;12.80;;;;;;;14.83;29.49;101418.19;4994485;27;20036;-72
2022/03/05 10:58:13;;;;;;;16.90;13.48;;;;;;;14.99;28.53;101417.56;5019698;27;20538;-72
2022/03/05 11:00:39;;;;;;;16.02;13.05;;;;;;;14.87;29.23;101405.41;5019012;27;21013;-72
2022/03/05 11:03:04;;;;;;;16.23;13.18;;;;;;;15.37;27.86;101412.97;5002966;27;20032;-71
2022/03/05 11:05:30;;;;;;;15.43;12.82;;;;;;;16.59;26.91;101410.50;5020635;27;20094;-74
2022/03/05 11:07:55;;;;;;;16.30;12.90;;;;;;;16.25;26.99;101416.69;5024202;27;20017;-70
2022/03/05 11:10:23;;;;;;;14.80;12.77;;;;;;;16.22;27.85;101415.16;5016313;27;20017;-71
2022/03/05 11:12:52;;;;;;;17.95;13.68;;;;;;;15.84;26.79;101411.06;5014211;27;20048;-72